Cory, CO (81414)

7:51 PM MDT on April 29, 2017 (GMT -0600)
Austin, CO | | Change Station
Active Advisory: Freeze Warning

Elev 5290 ft 38.80 °N, 107.99 °W | Updated 26 seconds ago

Overcast
Overcast
48.0 °F
Feels Like 46 °F
N
5.0
Wind Variable Wind from NW

Today
High -- | Low -- °F
--% Chance of Precip.
Yesterday
High -- | Low -- °F
Precip. -- in
Pressure 30.04 in
Visibility 10.0 miles
Clouds Overcast 9500 ft
Windchill 46 °F
Dew Point 24 °F
Humidity 40%
Rainfall 0.07 in
Snow Depth Not available.
6:16 AM 8:02 PM
Waxing Crescent, 18% visible
METAR KAJZ 300135Z AUTO 01004KT 10SM OVC095 11/M05 A3004 RMK AO2 T01101053
Pressure 30.04 in
Visibility 10.0 miles
Clouds Overcast 9500 ft
Windchill 46 °F
Dew Point 24 °F
Humidity 40%
Rainfall 0.07 in
Snow Depth Not available.
6:16 AM 8:02 PM
Waxing Crescent, 18% visible
METAR KAJZ 300135Z AUTO 01004KT 10SM OVC095 11/M05 A3004 RMK AO2 T01101053

Get Your Daily Forecast Email!

Thanks for signing up!

Be on the lookout for a verification email in your inbox.

You'll start receiving severe weather alerts in your inbox..

×

10-Day Weather Forecast

Almanac

Astronomy

Apr. 29, 2017 Rise Set
Actual Time
Civil Twilight
Nautical Twilight
Astronomical Twilight
Moon
Length of Visible Light
Length of Day
Tomorrow will be .
, % of the Moon is Illuminated

Today's Extremes

State Highs State Lows

Community

WunderPhotos

WunderBlog® & News

Nearby

Air Quality

  Air Quality AQ Index Pollutant
Not available.

Snow Depth

Station Depth Elevation

Earthquake Activity

City Distance Mag. Time & Date
Minimum magnitude displayed is 2.5.

Coastal Water Temperatures

Place Temperature

Stations

Nearby Weather Stations

Station Location Temp. Windchill Dew Point Humidity Wind Precip. Elev Updated Type
                   

Watches & Warnings

Freeze Warning
Issued: 6:42 PM MDT Apr. 29, 2017 – National Weather Service

... Freeze warning remains in effect until 9 am MDT Sunday...

* locations include... Montrose, Hotchkiss, and Delta.

* Temperatures... low temperatures of 25 to 30 degrees are expected
                 Sunday morning.

* Timing... the coldest temperatures will occur just before and
           around sunrise Sunday.

* Impacts... budding vegetation may be negatively impacted as
            temperatures drop below critical thresholds. Small,
            exposed water lines, such as those associated with
            swamp coolers, could freeze up.

Precautionary/preparedness actions...

A freeze warning means sub-freezing temperatures are imminent or
highly likely. These conditions will kill crops and other
sensitive vegetation.